Time;durP1;ratioP1;P1;durP2;ratioP2;P2;SDS_P1;SDS_P2;PMS_P1;PMS_P2;Temp;Humidity;BMP_temperature;BMP_pressure;BME280_temperature;BME280_humidity;BME280_pressure;Samples;Min_cycle;Max_cycle;Signal;HPM_P1;HPM_P2
2023/10/04 03:53:29;;;;;;;6.95;1.62;;;;;;;17.65;100.00;100955.31;6377650;27;20132;31
2023/10/04 03:56:33;;;;;;;2.97;1.90;;;;;;;17.66;100.00;100946.06;5377306;33;33268;-84
2023/10/04 03:59:36;;;;;;;2.25;1.25;;;;;;;17.68;100.00;100941.25;5368845;33;33501;-84
2023/10/04 04:02:40;;;;;;;3.00;2.00;;;;;;;17.70;100.00;100939.19;5358112;33;33190;-84
2023/10/04 04:05:44;;;;;;;2.37;1.45;;;;;;;17.67;100.00;100951.31;5378880;33;34149;-83
2023/10/04 04:08:47;;;;;;;3.60;1.50;;;;;;;17.61;100.00;100962.22;5365350;33;33280;-83
2023/10/04 04:11:52;;;;;;;3.58;2.28;;;;;;;17.59;100.00;100953.41;5365708;33;34060;-84
2023/10/04 04:14:55;;;;;;;1.85;1.27;;;;;;;17.54;100.00;100958.66;5353981;33;33375;-84
2023/10/04 04:17:58;;;;;;;2.80;1.62;;;;;;;17.52;100.00;100956.16;5353723;33;33749;-84
2023/10/04 04:21:03;;;;;;;3.75;1.60;;;;;;;17.49;100.00;100969.31;5365710;33;32847;-84
2023/10/04 04:24:08;;;;;;;4.40;1.27;;;;;;;17.47;100.00;100982.31;5354664;33;34630;-83
2023/10/04 04:27:12;;;;;;;1.73;1.30;;;;;;;17.42;100.00;100978.31;5355139;33;34068;-83
2023/10/04 04:30:19;;;;;;;2.42;1.33;;;;;;;17.40;100.00;100987.75;5366261;33;33346;-83
2023/10/04 04:33:26;;;;;;;4.57;1.60;;;;;;;17.35;100.00;100993.81;5366130;33;34928;-84
2023/10/04 04:36:32;;;;;;;1.60;1.00;;;;;;;17.31;100.00;100997.16;5355340;33;33599;-88
2023/10/04 04:39:40;;;;;;;3.45;1.30;;;;;;;17.28;100.00;100994.84;5365847;33;33372;-88
2023/10/04 04:42:47;;;;;;;1.45;1.20;;;;;;;17.33;100.00;101000.50;5378649;33;34103;-84
2023/10/04 04:45:52;;;;;;;2.33;1.23;;;;;;;17.40;100.00;100993.19;5365653;33;33398;-84
2023/10/04 04:48:56;;;;;;;1.17;0.98;;;;;;;17.34;100.00;101010.34;5365381;33;32863;-84
2023/10/04 04:52:02;;;;;;;1.80;1.58;;;;;;;17.43;100.00;100998.22;5378911;33;33581;-84
2023/10/04 04:55:07;;;;;;;1.40;1.15;;;;;;;17.37;100.00;101012.66;5353631;33;33423;-84
2023/10/04 04:58:14;;;;;;;2.00;1.12;;;;;;;17.39;100.00;101016.00;5347471;33;34235;-84
2023/10/04 05:01:17;;;;;;;1.95;1.20;;;;;;;17.45;100.00;101017.91;5360502;33;34264;-83
2023/10/04 05:04:22;;;;;;;4.80;2.40;;;;;;;17.43;100.00;101020.84;5347171;33;33378;-82
2023/10/04 05:07:27;;;;;;;3.33;1.30;;;;;;;17.38;100.00;101028.78;5347139;33;33017;-83
2023/10/04 05:10:37;;;;;;;7.82;1.85;;;;;;;17.41;100.00;101025.66;5347083;33;33506;-83
2023/10/04 05:13:40;;;;;;;2.30;1.50;;;;;;;17.43;100.00;101037.19;5359748;33;33610;-83
2023/10/04 05:16:42;;;;;;;2.45;1.30;;;;;;;17.36;100.00;101040.94;5346744;33;34080;-83
2023/10/04 05:19:46;;;;;;;2.45;1.10;;;;;;;17.34;100.00;101040.28;5346778;33;34267;-83
2023/10/04 05:22:53;;;;;;;2.33;1.48;;;;;;;17.37;99.60;101062.47;5346157;33;32955;-84
2023/10/04 05:25:57;;;;;;;3.33;1.45;;;;;;;17.41;99.61;101082.81;5335222;33;32908;-84
2023/10/04 05:29:00;;;;;;;3.05;1.83;;;;;;;17.42;98.48;101083.66;5359704;33;33096;-83
2023/10/04 05:32:04;;;;;;;1.45;1.02;;;;;;;17.47;97.52;101091.22;5346553;33;34401;-83
2023/10/04 05:35:12;;;;;;;4.47;1.58;;;;;;;17.49;97.58;101100.00;5334421;33;33702;-82
2023/10/04 05:38:18;;;;;;;3.92;1.27;;;;;;;17.54;98.76;101113.84;5346731;33;33349;-83
2023/10/04 05:41:21;;;;;;;3.05;1.35;;;;;;;17.50;97.58;101134.34;5334846;33;34102;-83
2023/10/04 05:44:24;;;;;;;7.62;1.42;;;;;;;17.54;97.92;101122.00;5346270;33;33425;-83
2023/10/04 05:47:27;;;;;;;3.75;1.20;;;;;;;17.51;97.25;101125.13;5346076;33;33109;-83
2023/10/04 05:50:32;;;;;;;3.62;1.50;;;;;;;17.47;97.31;101129.31;5344228;33;33425;-83
2023/10/04 05:53:37;;;;;;;2.67;1.17;;;;;;;17.49;97.09;101129.94;5329649;33;32815;-83
2023/10/04 05:56:41;;;;;;;4.20;1.58;;;;;;;17.49;95.91;101138.09;5357636;33;33407;-83
2023/10/04 05:59:43;;;;;;;3.10;1.40;;;;;;;17.52;96.08;101141.28;5358957;33;33856;-83
2023/10/04 06:02:48;;;;;;;5.00;1.15;;;;;;;17.45;95.41;101151.28;5332153;33;34682;-82
2023/10/04 06:05:51;;;;;;;3.10;1.50;;;;;;;17.39;95.17;101161.12;5327621;33;33348;-83
2023/10/04 06:08:55;;;;;;;3.08;0.90;;;;;;;17.37;93.55;101167.81;5328071;33;34061;-82
2023/10/04 06:12:01;;;;;;;0.93;0.80;;;;;;;17.42;94.05;101174.31;5316917;33;33257;-83
2023/10/04 06:15:10;;;;;;;3.20;1.27;;;;;;;17.42;93.90;101182.47;5327993;33;33558;-84
2023/10/04 06:18:14;;;;;;;1.93;1.37;;;;;;;17.52;93.14;101194.88;5328496;33;33874;-87
2023/10/04 06:21:17;;;;;;;2.08;1.25;;;;;;;17.50;93.40;101200.53;5338674;33;34845;-84
2023/10/04 06:24:23;;;;;;;2.75;1.20;;;;;;;17.63;92.84;101197.00;5359816;33;33497;-83
2023/10/04 06:27:26;;;;;;;2.97;1.40;;;;;;;17.62;91.39;101196.19;5340961;33;34015;-83
2023/10/04 06:30:33;;;;;;;3.45;1.02;;;;;;;17.62;90.38;101195.34;5352530;33;33664;-82
2023/10/04 06:33:36;;;;;;;2.58;1.30;;;;;;;17.60;90.15;101194.69;5372859;33;34503;-83
2023/10/04 06:36:39;;;;;;;2.47;1.37;;;;;;;17.63;88.78;101199.72;5368944;33;34828;-83
2023/10/04 06:39:41;;;;;;;2.87;1.70;;;;;;;17.65;87.27;101205.81;5349530;33;33642;-82
2023/10/04 06:42:49;;;;;;;3.20;1.40;;;;;;;17.65;86.04;101220.28;5348184;33;33432;-83
2023/10/04 06:45:52;;;;;;;3.00;1.05;;;;;;;17.71;86.21;101217.78;5364286;33;34071;-82
2023/10/04 06:48:55;;;;;;;9.43;1.52;;;;;;;17.81;83.01;101223.69;5341210;33;33235;-83
2023/10/04 06:51:58;;;;;;;3.37;1.15;;;;;;;17.82;83.08;101218.06;5332677;33;33087;-82
2023/10/04 06:55:02;;;;;;;2.37;0.95;;;;;;;17.85;82.13;101222.28;5326761;33;33144;-82
2023/10/04 06:58:08;;;;;;;4.32;1.35;;;;;;;17.95;82.19;101222.69;5330315;33;33852;-82
2023/10/04 07:01:15;;;;;;;1.05;0.98;;;;;;;17.89;81.93;101210.75;5332657;33;33227;-87
2023/10/04 07:04:18;;;;;;;1.55;0.88;;;;;;;17.88;81.27;101205.50;5355598;33;33374;-84
2023/10/04 07:07:22;;;;;;;3.70;1.40;;;;;;;17.83;82.10;101213.44;5336149;33;34535;-83
2023/10/04 07:10:27;;;;;;;2.62;0.88;;;;;;;17.81;81.77;101207.34;5335408;33;33079;-84
2023/10/04 07:13:32;;;;;;;4.87;1.20;;;;;;;17.66;81.85;101221.09;5361121;33;34009;-83
2023/10/04 07:16:40;;;;;;;2.43;1.07;;;;;;;17.73;81.61;101232.88;5337156;33;33078;-83
2023/10/04 07:19:43;;;;;;;4.37;1.52;;;;;;;17.61;82.25;101257.13;5360907;33;33550;-83
2023/10/04 07:22:53;;;;;;;5.15;1.52;;;;;;;17.71;82.80;101255.91;5347521;33;34293;-83
2023/10/04 07:25:57;;;;;;;2.05;1.40;;;;;;;17.61;83.20;101259.03;5348190;33;33050;-83
2023/10/04 07:29:00;;;;;;;3.25;1.27;;;;;;;17.57;83.17;101258.56;5361674;33;33002;-82
2023/10/04 07:32:03;;;;;;;4.40;1.20;;;;;;;17.58;83.56;101256.69;5343978;33;33576;-83
2023/10/04 07:35:06;;;;;;;4.90;1.17;;;;;;;17.39;84.80;101264.56;5343062;33;33242;-82
2023/10/04 07:38:10;;;;;;;1.20;0.80;;;;;;;17.31;85.94;101269.31;5337618;33;33272;-83
2023/10/04 07:41:13;;;;;;;6.18;1.80;;;;;;;17.30;86.52;101273.09;5318590;33;33121;-82
2023/10/04 07:44:16;;;;;;;1.08;0.98;;;;;;;17.20;87.42;101270.75;5331142;33;33797;-83
2023/10/04 07:47:19;;;;;;;1.67;1.52;;;;;;;17.11;87.79;101269.19;5347689;33;33334;-83
2023/10/04 07:50:25;;;;;;;5.70;1.60;;;;;;;17.20;87.82;101277.03;5371075;33;33187;-82
2023/10/04 07:53:29;;;;;;;4.53;1.40;;;;;;;17.23;87.55;101264.91;5356292;33;33939;-82
2023/10/04 07:56:34;;;;;;;2.20;1.27;;;;;;;17.29;87.03;101269.53;5336393;33;33635;-83
2023/10/04 07:59:37;;;;;;;2.78;1.27;;;;;;;17.38;87.40;101278.38;5347463;33;33681;-83
2023/10/04 08:02:51;;;;;;;1.10;0.82;;;;;;;17.87;85.41;101282.81;5347091;33;33738;-82
2023/10/04 08:05:55;;;;;;;5.15;1.40;;;;;;;18.36;82.46;101289.88;5359901;33;34648;-86
2023/10/04 08:08:58;;;;;;;3.45;1.08;;;;;;;18.68;81.17;101274.59;5331653;33;33365;-83
2023/10/04 08:12:01;;;;;;;5.30;1.17;;;;;;;18.75;80.94;101252.84;5340431;33;33255;-83
2023/10/04 08:15:07;;;;;;;4.28;1.42;;;;;;;18.77;80.00;101251.53;5333655;33;32935;-83
2023/10/04 08:18:13;;;;;;;2.15;1.27;;;;;;;18.80;80.86;101266.66;5342921;33;33180;-82
2023/10/04 08:21:16;;;;;;;4.62;1.23;;;;;;;18.48;81.74;101273.75;5359393;33;33012;-84
2023/10/04 08:24:20;;;;;;;4.07;1.48;;;;;;;18.29;81.71;101283.59;5345246;33;33367;-83
2023/10/04 08:27:24;;;;;;;2.92;1.30;;;;;;;17.93;83.57;101298.37;5360525;33;33470;-82
2023/10/04 08:30:30;;;;;;;1.48;1.02;;;;;;;17.80;84.95;101312.75;5360712;33;33024;-82
2023/10/04 08:33:34;;;;;;;2.60;1.00;;;;;;;18.00;83.64;101301.94;5343805;33;33428;-84
2023/10/04 08:36:39;;;;;;;1.67;1.35;;;;;;;17.95;84.37;101312.59;5344816;33;33323;-83
2023/10/04 08:39:43;;;;;;;2.53;0.90;;;;;;;17.79;84.59;101324.72;5336471;33;34260;-83
2023/10/04 08:42:50;;;;;;;3.90;1.00;;;;;;;17.92;85.54;101321.19;5333395;33;34373;-84
2023/10/04 08:45:56;;;;;;;1.90;0.93;;;;;;;18.11;85.94;101315.00;5373038;33;33100;-84
2023/10/04 08:49:01;;;;;;;2.50;1.30;;;;;;;18.27;83.52;101318.37;5357613;33;34072;-83
2023/10/04 08:52:17;;;;;;;2.70;1.20;;;;;;;18.64;82.73;101322.44;5347176;33;33406;-83
2023/10/04 08:55:24;;;;;;;3.55;1.50;;;;;;;18.73;81.47;101323.94;5359532;33;33421;-83
2023/10/04 08:58:27;;;;;;;2.20;1.23;;;;;;;18.84;81.47;101317.03;5356406;33;33933;-82
2023/10/04 09:01:31;;;;;;;3.85;1.60;;;;;;;18.76;81.27;101307.16;5357185;33;34189;-82
2023/10/04 09:04:36;;;;;;;1.37;1.10;;;;;;;18.59;82.07;101311.31;5345403;33;33482;-82
2023/10/04 09:07:39;;;;;;;2.47;1.10;;;;;;;18.66;82.76;101316.75;5357330;33;34126;-82
2023/10/04 09:10:43;;;;;;;0.93;0.90;;;;;;;19.02;80.72;101327.31;5338367;33;33276;-82
2023/10/04 09:13:49;;;;;;;4.30;1.77;;;;;;;19.49;79.01;101330.84;5367138;33;33198;-82
2023/10/04 09:17:11;;;;;;;3.12;1.60;;;;;;;19.72;77.36;101333.13;5355848;33;33455;-83
2023/10/04 09:20:16;;;;;;;2.97;0.90;;;;;;;20.07;76.41;101327.31;5346297;33;33518;-82
2023/10/04 09:23:22;;;;;;;2.15;1.08;;;;;;;20.21;75.52;101328.06;5357740;33;33569;-83
2023/10/04 09:26:26;;;;;;;4.37;1.37;;;;;;;20.52;74.39;101325.41;5357589;33;33414;-86
2023/10/04 09:29:31;;;;;;;4.78;1.10;;;;;;;20.74;72.07;101333.25;5358919;33;33337;-87
2023/10/04 09:32:35;;;;;;;2.10;1.08;;;;;;;20.78;71.61;101334.47;5358141;33;34031;-88
2023/10/04 09:35:43;;;;;;;2.12;1.40;;;;;;;20.92;70.86;101340.69;5352426;33;33941;-83
2023/10/04 09:39:06;;;;;;;3.20;1.65;;;;;;;21.02;70.04;101344.59;5349610;33;33382;-83
2023/10/04 09:42:14;;;;;;;1.90;1.50;;;;;;;21.29;68.58;101344.34;5359128;33;33993;-82
2023/10/04 09:45:20;;;;;;;1.80;1.23;;;;;;;21.72;66.50;101330.66;5359081;33;34088;-83
2023/10/04 09:48:25;;;;;;;1.58;1.10;;;;;;;21.75;65.25;101326.62;5358114;33;32771;-83
2023/10/04 09:51:28;;;;;;;6.75;1.35;;;;;;;21.23;67.67;101324.19;5359061;33;34182;-82
2023/10/04 09:54:31;;;;;;;1.60;1.25;;;;;;;21.36;68.55;101336.09;5346269;33;34076;-83
2023/10/04 09:57:36;;;;;;;1.27;1.00;;;;;;;21.63;68.16;101333.94;5358680;33;33097;-82
2023/10/04 10:00:39;;;;;;;2.83;1.20;;;;;;;22.23;63.86;101352.41;5356918;33;33434;-81
2023/10/04 10:03:59;;;;;;;2.97;1.42;;;;;;;22.26;63.47;101349.22;5336113;33;33451;-82
2023/10/04 10:07:10;;;;;;;5.55;1.17;;;;;;;22.04;63.76;101346.94;5360210;33;34179;-82
2023/10/04 10:10:16;;;;;;;2.83;1.33;;;;;;;21.65;65.13;101345.53;5361063;33;33256;-82
2023/10/04 10:13:19;;;;;;;1.67;1.30;;;;;;;21.54;65.68;101346.28;5347321;33;33771;-81
2023/10/04 10:16:24;;;;;;;1.83;1.30;;;;;;;21.84;67.40;101351.81;5346910;33;33336;-81
2023/10/04 10:19:28;;;;;;;4.03;1.37;;;;;;;22.10;64.70;101358.91;5335260;33;33948;-82
2023/10/04 10:22:32;;;;;;;1.98;1.23;;;;;;;22.04;62.57;101359.81;5347265;33;32909;-82
2023/10/04 10:25:37;;;;;;;2.22;1.48;;;;;;;22.04;62.38;101362.56;5352271;33;33830;-81
2023/10/04 10:28:40;;;;;;;2.90;0.90;;;;;;;22.47;61.05;101351.47;5361188;33;33429;-81
2023/10/04 10:31:55;;;;;;;4.10;1.73;;;;;;;22.60;60.01;101364.97;5354190;33;33301;-82
2023/10/04 10:35:12;;;;;;;5.70;1.45;;;;;;;22.24;61.17;101360.44;5343856;33;32972;-81
2023/10/04 10:38:41;;;;;;;3.92;1.20;;;;;;;22.65;60.05;101358.81;5332181;33;33720;-86
2023/10/04 10:41:49;;;;;;;2.17;1.42;;;;;;;22.58;58.59;101361.66;5343896;33;33275;-82
2023/10/04 10:45:25;;;;;;;3.22;1.60;;;;;;;22.37;58.76;101360.25;5343032;33;33063;-82
2023/10/04 10:48:33;;;;;;;2.05;1.35;;;;;;;22.75;58.11;101364.53;5330596;33;33405;-82
2023/10/04 10:51:40;;;;;;;5.95;1.40;;;;;;;23.16;56.98;101349.13;5350886;33;33974;-82
2023/10/04 10:54:44;;;;;;;4.78;1.55;;;;;;;23.43;54.36;101345.91;5348363;33;33622;-82
2023/10/04 10:57:50;;;;;;;4.15;1.65;;;;;;;23.66;52.41;101350.53;5348105;33;33455;-82
2023/10/04 11:00:56;;;;;;;3.53;1.50;;;;;;;23.08;53.93;101339.34;5347292;33;33742;-82
2023/10/04 11:03:59;;;;;;;3.67;1.65;;;;;;;22.70;55.85;101358.09;5343408;33;33308;-82
2023/10/04 11:07:06;;;;;;;2.97;1.25;;;;;;;21.95;56.94;101345.59;5335672;33;33288;-82
2023/10/04 11:10:15;;;;;;;4.62;1.70;;;;;;;21.67;57.79;101341.47;5357887;33;34019;-82
2023/10/04 11:13:21;;;;;;;2.33;1.48;;;;;;;21.97;58.11;101343.47;5354386;33;33511;-82
2023/10/04 11:16:29;;;;;;;5.12;1.35;;;;;;;23.51;51.79;101338.13;5343539;33;33128;-82
2023/10/04 11:19:34;;;;;;;3.53;1.40;;;;;;;23.75;50.34;101327.12;5358836;33;33555;-82
2023/10/04 11:22:38;;;;;;;4.22;1.58;;;;;;;24.43;48.76;101329.09;5343197;33;34469;-82
2023/10/04 11:25:42;;;;;;;5.93;1.62;;;;;;;24.07;48.08;101323.94;5352373;33;33660;-82
2023/10/04 11:28:47;;;;;;;3.75;1.55;;;;;;;24.21;47.11;101344.59;5330875;33;33279;-82
2023/10/04 11:31:50;;;;;;;1.90;1.25;;;;;;;24.70;44.60;101327.63;5333605;33;33034;-82
2023/10/04 11:34:56;;;;;;;2.53;1.30;;;;;;;26.32;40.27;101333.00;5324504;33;33265;-82
2023/10/04 11:38:05;;;;;;;2.28;1.42;;;;;;;25.87;38.87;101320.34;5359939;33;33074;-86
2023/10/04 11:41:11;;;;;;;2.90;1.40;;;;;;;26.63;37.35;101317.59;5336815;33;33246;-82
2023/10/04 11:44:14;;;;;;;2.28;1.35;;;;;;;26.98;34.72;101317.06;5360074;33;33344;-82
2023/10/04 11:47:32;;;;;;;1.98;1.10;;;;;;;28.33;32.31;101334.13;5348174;33;33359;-82
2023/10/04 11:50:53;;;;;;;8.25;1.45;;;;;;;28.98;30.34;101317.84;5347355;33;33334;-82
2023/10/04 11:53:56;;;;;;;2.87;1.00;;;;;;;29.72;29.42;101305.25;5357947;33;32986;-82
2023/10/04 11:57:03;;;;;;;3.12;1.10;;;;;;;30.53;28.00;101315.09;5359063;33;33194;-82
2023/10/04 12:00:21;;;;;;;3.83;1.15;;;;;;;31.11;27.50;101311.56;5322511;33;32951;-82
2023/10/04 12:03:26;;;;;;;2.25;1.00;;;;;;;29.63;29.59;101316.09;5348865;33;33143;-82
2023/10/04 12:06:33;;;;;;;3.97;1.35;;;;;;;29.75;28.91;101313.84;5369774;33;33370;-82
2023/10/04 12:09:36;;;;;;;4.10;1.80;;;;;;;29.94;28.46;101308.47;5353756;33;33616;-82
2023/10/04 12:12:42;;;;;;;2.05;1.05;;;;;;;31.38;27.90;101317.44;5360657;33;34243;-82
2023/10/04 12:15:45;;;;;;;2.15;1.42;;;;;;;31.21;25.86;101310.63;5359463;33;33309;-82
2023/10/04 12:18:48;;;;;;;2.75;0.75;;;;;;;31.54;25.94;101320.06;5347479;33;34165;-83
2023/10/04 12:21:52;;;;;;;7.95;1.20;;;;;;;33.21;24.09;101311.50;5348412;33;33392;-82
2023/10/04 12:24:56;;;;;;;5.40;0.80;;;;;;;34.35;22.15;101314.44;5362772;33;33520;-83
2023/10/04 12:27:59;;;;;;;2.60;0.90;;;;;;;34.51;21.71;101310.12;5347585;33;33331;-83
2023/10/04 12:31:05;;;;;;;2.22;1.00;;;;;;;34.50;21.55;101319.66;5354051;33;33088;-81
2023/10/04 12:34:08;;;;;;;4.90;1.17;;;;;;;33.52;22.61;101325.69;5353042;33;33511;-80
2023/10/04 12:37:12;;;;;;;3.40;0.85;;;;;;;29.48;27.29;101319.72;5331011;33;33844;-80
2023/10/04 12:40:23;;;;;;;2.37;0.90;;;;;;;27.68;30.21;101323.34;5347579;33;33281;-81
2023/10/04 12:43:26;;;;;;;5.25;1.73;;;;;;;27.53;31.35;101326.03;5348948;33;33463;-82
2023/10/04 12:46:29;;;;;;;4.28;1.20;;;;;;;28.51;29.70;101325.31;5347327;33;34019;-82
2023/10/04 12:49:32;;;;;;;1.95;1.15;;;;;;;28.00;30.08;101314.94;5328804;33;33398;-82
2023/10/04 12:52:35;;;;;;;1.42;0.88;;;;;;;28.74;29.67;101326.72;5318799;33;34381;-82
2023/10/04 12:55:39;;;;;;;3.35;0.85;;;;;;;29.81;27.75;101321.03;5359681;33;34060;-86
2023/10/04 12:58:45;;;;;;;2.55;1.02;;;;;;;28.86;28.95;101323.69;5347095;33;34732;-86
2023/10/04 13:01:48;;;;;;;3.37;1.40;;;;;;;26.26;32.77;101318.28;5346810;33;33401;-86
2023/10/04 13:04:51;;;;;;;3.78;1.33;;;;;;;24.46;36.14;101319.50;5360497;33;32885;-82
2023/10/04 13:07:55;;;;;;;2.58;1.27;;;;;;;24.23;37.33;101325.09;5359435;33;33391;-82
2023/10/04 13:10:59;;;;;;;2.15;1.10;;;;;;;23.66;38.23;101318.37;5346718;33;33411;-82
2023/10/04 13:14:02;;;;;;;6.93;1.23;;;;;;;22.60;40.24;101322.97;5334720;33;33401;-82
2023/10/04 13:17:06;;;;;;;2.97;1.33;;;;;;;22.26;41.15;101316.28;5332854;33;32875;-82
2023/10/04 13:20:18;;;;;;;2.60;1.12;;;;;;;21.71;42.68;101322.69;5358971;33;33119;-82
2023/10/04 13:23:21;;;;;;;2.45;1.20;;;;;;;21.48;42.78;101320.63;5331637;33;32915;-82
2023/10/04 13:26:24;;;;;;;1.80;1.10;;;;;;;21.15;44.36;101323.62;5350375;33;33356;-82
2023/10/04 13:29:27;;;;;;;5.90;1.77;;;;;;;21.35;43.42;101320.69;5330141;33;33238;-82
2023/10/04 13:32:31;;;;;;;3.03;1.20;;;;;;;21.19;45.39;101322.13;5360474;33;33138;-82
2023/10/04 13:35:34;;;;;;;2.70;1.23;;;;;;;21.09;45.23;101338.22;5333625;33;33380;-82
2023/10/04 13:38:38;;;;;;;5.12;1.70;;;;;;;21.08;44.77;101350.25;5346682;33;32854;-82
2023/10/04 13:41:42;;;;;;;1.58;1.40;;;;;;;20.72;45.94;101349.06;5333913;33;35241;-82
2023/10/04 13:44:45;;;;;;;1.48;1.00;;;;;;;20.76;45.82;101353.00;5358379;33;33433;-82
2023/10/04 13:47:49;;;;;;;4.80;1.35;;;;;;;20.38;45.35;101345.66;5334512;33;33092;-82
2023/10/04 13:50:52;;;;;;;4.03;1.65;;;;;;;20.50;44.96;101349.34;5344992;33;33523;-82
2023/10/04 13:53:55;;;;;;;5.57;1.40;;;;;;;20.49;45.53;101353.16;5345902;33;33345;-82
2023/10/04 13:56:59;;;;;;;5.07;1.65;;;;;;;20.42;45.48;101346.91;5346577;33;33407;-82
2023/10/04 14:00:04;;;;;;;4.22;1.20;;;;;;;20.38;46.27;101351.13;5358250;33;32982;-82
2023/10/04 14:03:13;;;;;;;3.72;1.62;;;;;;;20.35;46.89;101366.06;5357935;33;32108;-82
2023/10/04 14:06:16;;;;;;;4.62;0.90;;;;;;;19.91;47.55;101372.34;5345971;33;33383;-81
2023/10/04 14:09:22;;;;;;;4.93;1.60;;;;;;;19.62;48.87;101376.37;5337178;33;33473;-82
2023/10/04 14:12:25;;;;;;;4.53;1.42;;;;;;;19.29;50.11;101380.00;5358936;33;33177;-81
2023/10/04 14:15:30;;;;;;;9.23;1.67;;;;;;;19.16;50.34;101372.69;5333887;33;33630;-81
2023/10/04 14:18:33;;;;;;;4.18;1.42;;;;;;;19.09;50.99;101382.75;5358291;33;33286;-82
2023/10/04 14:21:37;;;;;;;3.28;1.33;;;;;;;18.94;52.42;101382.94;5345188;33;33433;-82
2023/10/04 14:24:42;;;;;;;3.58;1.37;;;;;;;18.63;53.90;101375.28;5345728;33;34122;-82
2023/10/04 14:27:45;;;;;;;1.60;1.15;;;;;;;18.56;54.08;101369.84;5333041;33;33383;-82
2023/10/04 14:30:49;;;;;;;1.50;0.98;;;;;;;18.40;55.12;101367.50;5333774;33;34205;-82
2023/10/04 14:33:53;;;;;;;6.10;0.95;;;;;;;18.32;55.40;101346.72;5345475;33;32898;-81
2023/10/04 14:36:56;;;;;;;2.60;1.00;;;;;;;18.29;55.83;101346.28;5345472;33;33265;-82
2023/10/04 14:39:59;;;;;;;3.00;1.35;;;;;;;18.11;56.17;101347.69;5333585;33;32877;-82
2023/10/04 14:43:03;;;;;;;7.10;1.30;;;;;;;17.87;57.04;101351.78;5348649;33;33399;-82
2023/10/04 14:46:09;;;;;;;2.45;1.30;;;;;;;17.67;59.16;101342.63;5328864;33;34853;-83
2023/10/04 14:49:12;;;;;;;1.73;1.25;;;;;;;17.67;58.59;101345.37;5349917;33;32847;-83
2023/10/04 14:52:15;;;;;;;2.10;1.08;;;;;;;17.53;64.43;101351.75;5336622;33;34067;-87
2023/10/04 14:55:19;;;;;;;4.68;1.37;;;;;;;17.02;71.12;101343.84;5334805;33;31755;-88
2023/10/04 14:58:22;;;;;;;6.28;1.08;;;;;;;16.61;73.18;101349.91;5333271;33;33219;-84
2023/10/04 15:01:25;;;;;;;3.25;1.35;;;;;;;16.42;74.47;101348.69;5347363;33;34122;-83
2023/10/04 15:04:29;;;;;;;1.17;1.08;;;;;;;16.42;74.07;101316.06;5348271;33;33152;-84
2023/10/04 15:07:33;;;;;;;2.28;1.15;;;;;;;16.53;69.49;101310.97;5347971;33;33296;-83
2023/10/04 15:10:35;;;;;;;2.12;1.27;;;;;;;16.55;69.04;101337.94;5335591;33;33219;-83
2023/10/04 15:13:39;;;;;;;2.67;1.15;;;;;;;16.58;70.54;101314.97;5336021;33;33299;-84
2023/10/04 15:16:41;;;;;;;0.98;0.98;;;;;;;16.55;68.60;101343.38;5349704;33;34601;-83
2023/10/04 15:19:44;;;;;;;2.72;1.40;;;;;;;16.55;66.40;101325.22;5345039;33;132368;-83
2023/10/04 15:22:48;;;;;;;2.28;1.08;;;;;;;16.60;64.34;101340.09;5348065;33;33009;-83
2023/10/04 15:25:52;;;;;;;1.35;1.25;;;;;;;16.58;64.55;101351.16;5336685;33;33832;-83
2023/10/04 15:28:56;;;;;;;1.58;1.00;;;;;;;16.54;65.33;101364.28;5348345;33;33330;-83
2023/10/04 15:31:59;;;;;;;2.62;0.80;;;;;;;16.57;66.90;101368.50;5336193;33;33740;-83
2023/10/04 15:35:03;;;;;;;2.25;1.30;;;;;;;16.44;68.70;101369.22;5348343;33;32875;-83
2023/10/04 15:38:06;;;;;;;2.15;1.52;;;;;;;16.40;69.43;101370.59;5347457;33;34391;-83
2023/10/04 15:41:11;;;;;;;5.65;1.30;;;;;;;16.27;71.16;101371.31;5335023;33;34010;-83
2023/10/04 15:44:15;;;;;;;10.85;1.98;;;;;;;16.21;71.25;101360.38;5336647;33;33373;-83
2023/10/04 15:47:19;;;;;;;2.25;1.40;;;;;;;16.07;70.57;101372.94;5337014;33;33600;-83
2023/10/04 15:50:23;;;;;;;3.28;1.40;;;;;;;16.10;71.08;101372.56;5351023;33;33344;-83
2023/10/04 15:53:26;;;;;;;2.45;1.30;;;;;;;15.97;71.66;101369.66;5335174;33;33137;-83
2023/10/04 15:56:29;;;;;;;1.02;0.90;;;;;;;15.85;72.06;101355.72;5347503;33;34487;-83
2023/10/04 15:59:31;;;;;;;2.65;1.45;;;;;;;15.84;70.95;101356.75;5347134;33;33373;-83
2023/10/04 16:02:38;;;;;;;2.58;1.17;;;;;;;15.81;68.91;101359.84;5347902;33;32970;-83
2023/10/04 16:05:41;;;;;;;1.42;0.98;;;;;;;15.77;69.03;101355.84;5360886;33;32975;-83
2023/10/04 16:08:45;;;;;;;1.40;1.17;;;;;;;15.71;68.00;101362.87;5347900;33;33271;-83
2023/10/04 16:11:48;;;;;;;1.70;1.40;;;;;;;15.72;68.01;101369.13;5347835;33;33367;-83
2023/10/04 16:14:50;;;;;;;0.70;0.70;;;;;;;15.71;67.46;101372.87;5347708;33;33185;-83
2023/10/04 16:17:54;;;;;;;1.35;1.08;;;;;;;15.76;64.88;101381.28;5335847;33;34143;-83
2023/10/04 16:20:59;;;;;;;2.67;1.35;;;;;;;15.74;64.41;101377.94;5361134;33;32873;-83
2023/10/04 16:24:03;;;;;;;3.72;1.15;;;;;;;15.77;62.76;101388.41;5348178;33;33386;-83
2023/10/04 16:27:06;;;;;;;1.95;1.17;;;;;;;15.73;63.58;101387.94;5335872;33;32957;-83
2023/10/04 16:30:11;;;;;;;1.58;1.20;;;;;;;15.62;64.89;101388.38;5347778;33;34924;-83
2023/10/04 16:33:14;;;;;;;2.10;1.15;;;;;;;15.56;66.49;101397.25;5362040;33;33087;-82
2023/10/04 16:36:17;;;;;;;3.15;1.45;;;;;;;15.49;68.20;101393.59;5337454;33;33086;-82
2023/10/04 16:39:27;;;;;;;5.70;2.15;;;;;;;15.39;70.09;101396.59;5338897;33;33043;-82
2023/10/04 16:42:30;;;;;;;1.25;1.00;;;;;;;15.34;71.31;101407.16;5362568;33;34237;-82
2023/10/04 16:45:33;;;;;;;1.37;1.05;;;;;;;15.35;71.67;101406.94;5349949;33;33137;-82
2023/10/04 16:48:36;;;;;;;3.50;1.17;;;;;;;15.28;72.20;101402.47;5338245;33;33368;-83
2023/10/04 16:51:39;;;;;;;2.85;1.37;;;;;;;15.26;72.67;101407.22;5349611;33;33130;-82
2023/10/04 16:54:43;;;;;;;3.05;1.55;;;;;;;15.18;73.06;101399.97;5349193;33;33067;-83
2023/10/04 16:57:46;;;;;;;4.20;1.27;;;;;;;15.20;71.87;101403.37;5335798;33;33557;-86
2023/10/04 17:00:49;;;;;;;2.65;1.45;;;;;;;15.19;72.19;101402.53;5360517;33;33252;-86
2023/10/04 17:03:52;;;;;;;4.03;1.50;;;;;;;15.14;74.13;101394.09;5346339;33;33390;-87
2023/10/04 17:06:55;;;;;;;2.70;1.33;;;;;;;15.08;75.44;101400.25;5348149;33;33256;-86
2023/10/04 17:09:58;;;;;;;2.60;1.48;;;;;;;15.01;75.91;101398.47;5347006;33;33090;-83
2023/10/04 17:13:02;;;;;;;2.72;1.58;;;;;;;14.92;77.20;101406.66;5347083;33;34109;-83
2023/10/04 17:16:05;;;;;;;2.05;1.27;;;;;;;14.88;78.23;101401.75;5360098;33;34504;-83
2023/10/04 17:19:08;;;;;;;4.90;1.33;;;;;;;14.84;78.76;101392.31;5347280;33;34705;-83
2023/10/04 17:22:11;;;;;;;2.58;1.25;;;;;;;14.76;79.46;101392.38;5347166;33;33067;-82
2023/10/04 17:25:15;;;;;;;3.97;1.62;;;;;;;14.69;80.35;101392.25;5347686;33;33312;-82
2023/10/04 17:28:21;;;;;;;1.52;1.17;;;;;;;14.73;80.28;101404.41;5365589;33;33612;-82
2023/10/04 17:31:25;;;;;;;4.15;1.60;;;;;;;14.62;81.96;101400.25;5371417;33;33275;-82
